sensor_id;sensor_type;location;lat;lon;timestamp;P1;durP1;ratioP1;P2;durP2;ratioP2
16015;SDS011;8112;53.592;10.184;2024-03-07T00:02:52;24.23;;;14.60;;
16015;SDS011;8112;53.592;10.184;2024-03-07T00:07:54;21.90;;;13.40;;
16015;SDS011;8112;53.592;10.184;2024-03-07T00:12:56;20.00;;;13.17;;
16015;SDS011;8112;53.592;10.184;2024-03-07T00:17:59;19.43;;;13.13;;
16015;SDS011;8112;53.592;10.184;2024-03-07T00:23:01;21.97;;;13.17;;
16015;SDS011;8112;53.592;10.184;2024-03-07T00:28:04;20.97;;;12.93;;
16015;SDS011;8112;53.592;10.184;2024-03-07T00:33:08;25.07;;;13.60;;
16015;SDS011;8112;53.592;10.184;2024-03-07T00:38:10;25.13;;;13.93;;
16015;SDS011;8112;53.592;10.184;2024-03-07T00:43:12;25.00;;;15.00;;
16015;SDS011;8112;53.592;10.184;2024-03-07T00:48:15;23.20;;;14.00;;
16015;SDS011;8112;53.592;10.184;2024-03-07T00:53:17;26.83;;;15.63;;
16015;SDS011;8112;53.592;10.184;2024-03-07T00:58:19;24.67;;;13.63;;
16015;SDS011;8112;53.592;10.184;2024-03-07T01:03:22;25.30;;;13.93;;
16015;SDS011;8112;53.592;10.184;2024-03-07T01:08:24;21.40;;;12.97;;
16015;SDS011;8112;53.592;10.184;2024-03-07T01:13:26;24.10;;;13.53;;
16015;SDS011;8112;53.592;10.184;2024-03-07T01:18:29;25.67;;;14.67;;
16015;SDS011;8112;53.592;10.184;2024-03-07T01:23:33;27.00;;;14.63;;
16015;SDS011;8112;53.592;10.184;2024-03-07T01:28:35;25.33;;;14.13;;
16015;SDS011;8112;53.592;10.184;2024-03-07T01:33:38;23.97;;;14.87;;
16015;SDS011;8112;53.592;10.184;2024-03-07T01:38:39;25.20;;;14.97;;
16015;SDS011;8112;53.592;10.184;2024-03-07T01:43:41;26.70;;;15.80;;
16015;SDS011;8112;53.592;10.184;2024-03-07T01:48:44;25.10;;;15.67;;
16015;SDS011;8112;53.592;10.184;2024-03-07T01:53:46;25.80;;;15.27;;
16015;SDS011;8112;53.592;10.184;2024-03-07T01:58:48;23.93;;;15.20;;
16015;SDS011;8112;53.592;10.184;2024-03-07T02:03:53;23.50;;;14.67;;
16015;SDS011;8112;53.592;10.184;2024-03-07T02:08:55;26.43;;;16.10;;
16015;SDS011;8112;53.592;10.184;2024-03-07T02:13:59;24.20;;;15.43;;
16015;SDS011;8112;53.592;10.184;2024-03-07T02:19:02;27.60;;;16.27;;
16015;SDS011;8112;53.592;10.184;2024-03-07T02:24:06;26.57;;;15.10;;
16015;SDS011;8112;53.592;10.184;2024-03-07T02:29:08;28.47;;;15.97;;
16015;SDS011;8112;53.592;10.184;2024-03-07T02:34:11;28.60;;;15.67;;
16015;SDS011;8112;53.592;10.184;2024-03-07T02:39:14;25.23;;;14.77;;
16015;SDS011;8112;53.592;10.184;2024-03-07T02:44:16;26.03;;;15.57;;
16015;SDS011;8112;53.592;10.184;2024-03-07T02:49:18;23.07;;;13.10;;
16015;SDS011;8112;53.592;10.184;2024-03-07T02:54:22;22.97;;;14.07;;
16015;SDS011;8112;53.592;10.184;2024-03-07T02:59:24;22.00;;;14.10;;
16015;SDS011;8112;53.592;10.184;2024-03-07T03:04:26;21.20;;;13.97;;
16015;SDS011;8112;53.592;10.184;2024-03-07T03:09:31;23.83;;;13.07;;
16015;SDS011;8112;53.592;10.184;2024-03-07T03:14:33;25.30;;;13.77;;
16015;SDS011;8112;53.592;10.184;2024-03-07T03:19:35;19.17;;;12.87;;
16015;SDS011;8112;53.592;10.184;2024-03-07T03:24:38;27.37;;;13.20;;
16015;SDS011;8112;53.592;10.184;2024-03-07T03:29:41;25.47;;;12.23;;
16015;SDS011;8112;53.592;10.184;2024-03-07T03:34:43;15.70;;;11.63;;
16015;SDS011;8112;53.592;10.184;2024-03-07T03:39:46;21.03;;;12.30;;
16015;SDS011;8112;53.592;10.184;2024-03-07T03:44:48;19.43;;;12.53;;
16015;SDS011;8112;53.592;10.184;2024-03-07T03:49:49;20.37;;;13.30;;
16015;SDS011;8112;53.592;10.184;2024-03-07T03:54:52;19.63;;;13.80;;
16015;SDS011;8112;53.592;10.184;2024-03-07T03:59:54;19.30;;;13.13;;
16015;SDS011;8112;53.592;10.184;2024-03-07T04:04:56;20.10;;;13.40;;
16015;SDS011;8112;53.592;10.184;2024-03-07T04:10:01;18.77;;;12.93;;
16015;SDS011;8112;53.592;10.184;2024-03-07T04:15:03;19.60;;;13.20;;
16015;SDS011;8112;53.592;10.184;2024-03-07T04:20:07;17.53;;;11.60;;
16015;SDS011;8112;53.592;10.184;2024-03-07T04:25:11;18.57;;;12.13;;
16015;SDS011;8112;53.592;10.184;2024-03-07T04:30:13;22.40;;;12.97;;
16015;SDS011;8112;53.592;10.184;2024-03-07T04:35:16;17.73;;;12.23;;
16015;SDS011;8112;53.592;10.184;2024-03-07T04:40:20;19.67;;;12.63;;
16015;SDS011;8112;53.592;10.184;2024-03-07T04:45:22;20.90;;;12.47;;
16015;SDS011;8112;53.592;10.184;2024-03-07T04:50:23;19.40;;;11.60;;
16015;SDS011;8112;53.592;10.184;2024-03-07T04:55:30;24.10;;;13.20;;
16015;SDS011;8112;53.592;10.184;2024-03-07T05:00:32;23.83;;;11.80;;
16015;SDS011;8112;53.592;10.184;2024-03-07T05:05:34;25.60;;;13.23;;
16015;SDS011;8112;53.592;10.184;2024-03-07T05:10:37;17.27;;;11.67;;
16015;SDS011;8112;53.592;10.184;2024-03-07T05:15:38;20.63;;;12.33;;
16015;SDS011;8112;53.592;10.184;2024-03-07T05:20:40;17.80;;;12.43;;
16015;SDS011;8112;53.592;10.184;2024-03-07T05:25:43;20.57;;;13.30;;
16015;SDS011;8112;53.592;10.184;2024-03-07T05:30:46;18.97;;;12.33;;
16015;SDS011;8112;53.592;10.184;2024-03-07T05:35:49;20.27;;;13.10;;
16015;SDS011;8112;53.592;10.184;2024-03-07T05:41:02;18.57;;;13.37;;
16015;SDS011;8112;53.592;10.184;2024-03-07T05:46:04;17.37;;;12.67;;
16015;SDS011;8112;53.592;10.184;2024-03-07T05:51:07;19.07;;;12.70;;
16015;SDS011;8112;53.592;10.184;2024-03-07T05:56:11;16.83;;;12.50;;
16015;SDS011;8112;53.592;10.184;2024-03-07T06:01:13;20.40;;;12.63;;
16015;SDS011;8112;53.592;10.184;2024-03-07T06:06:16;17.13;;;12.17;;
16015;SDS011;8112;53.592;10.184;2024-03-07T06:11:19;19.33;;;13.67;;
16015;SDS011;8112;53.592;10.184;2024-03-07T06:16:21;18.00;;;12.83;;
16015;SDS011;8112;53.592;10.184;2024-03-07T06:21:23;16.57;;;11.73;;
16015;SDS011;8112;53.592;10.184;2024-03-07T06:26:27;18.30;;;12.37;;
16015;SDS011;8112;53.592;10.184;2024-03-07T06:31:37;20.10;;;12.87;;
16015;SDS011;8112;53.592;10.184;2024-03-07T06:36:39;21.37;;;13.80;;
16015;SDS011;8112;53.592;10.184;2024-03-07T06:41:43;19.63;;;12.40;;
16015;SDS011;8112;53.592;10.184;2024-03-07T06:46:45;15.33;;;12.37;;
16015;SDS011;8112;53.592;10.184;2024-03-07T06:51:47;18.17;;;12.70;;
16015;SDS011;8112;53.592;10.184;2024-03-07T06:56:50;17.17;;;12.03;;
16015;SDS011;8112;53.592;10.184;2024-03-07T07:01:52;17.50;;;11.07;;
16015;SDS011;8112;53.592;10.184;2024-03-07T07:06:54;14.23;;;11.23;;
16015;SDS011;8112;53.592;10.184;2024-03-07T07:11:57;18.83;;;12.17;;
16015;SDS011;8112;53.592;10.184;2024-03-07T07:16:59;14.47;;;11.50;;
16015;SDS011;8112;53.592;10.184;2024-03-07T07:22:00;20.20;;;13.17;;
16015;SDS011;8112;53.592;10.184;2024-03-07T07:27:04;16.00;;;11.20;;
16015;SDS011;8112;53.592;10.184;2024-03-07T07:32:07;16.30;;;11.77;;
16015;SDS011;8112;53.592;10.184;2024-03-07T07:37:12;16.60;;;11.77;;
16015;SDS011;8112;53.592;10.184;2024-03-07T07:42:15;16.07;;;11.40;;
16015;SDS011;8112;53.592;10.184;2024-03-07T07:47:17;13.23;;;11.00;;
16015;SDS011;8112;53.592;10.184;2024-03-07T07:52:19;14.70;;;9.97;;
16015;SDS011;8112;53.592;10.184;2024-03-07T07:57:22;14.87;;;9.93;;
16015;SDS011;8112;53.592;10.184;2024-03-07T08:02:23;14.13;;;9.87;;
16015;SDS011;8112;53.592;10.184;2024-03-07T08:07:25;12.53;;;9.43;;
16015;SDS011;8112;53.592;10.184;2024-03-07T08:12:28;14.50;;;9.57;;
16015;SDS011;8112;53.592;10.184;2024-03-07T08:17:31;14.67;;;9.40;;
16015;SDS011;8112;53.592;10.184;2024-03-07T08:22:32;13.83;;;9.57;;
16015;SDS011;8112;53.592;10.184;2024-03-07T08:27:36;14.53;;;10.67;;
16015;SDS011;8112;53.592;10.184;2024-03-07T08:32:38;14.77;;;10.33;;
16015;SDS011;8112;53.592;10.184;2024-03-07T08:37:41;13.70;;;10.07;;
16015;SDS011;8112;53.592;10.184;2024-03-07T08:42:46;16.93;;;9.83;;
16015;SDS011;8112;53.592;10.184;2024-03-07T08:47:49;13.47;;;9.80;;
16015;SDS011;8112;53.592;10.184;2024-03-07T08:52:52;14.77;;;10.53;;
16015;SDS011;8112;53.592;10.184;2024-03-07T08:57:55;23.40;;;10.00;;
16015;SDS011;8112;53.592;10.184;2024-03-07T09:02:57;14.73;;;10.80;;
16015;SDS011;8112;53.592;10.184;2024-03-07T09:08:00;15.83;;;11.27;;
16015;SDS011;8112;53.592;10.184;2024-03-07T09:13:03;16.70;;;10.77;;
16015;SDS011;8112;53.592;10.184;2024-03-07T09:18:06;15.27;;;10.83;;
16015;SDS011;8112;53.592;10.184;2024-03-07T09:23:08;18.87;;;11.23;;
16015;SDS011;8112;53.592;10.184;2024-03-07T09:28:11;15.93;;;12.03;;
16015;SDS011;8112;53.592;10.184;2024-03-07T09:33:13;20.63;;;11.77;;
16015;SDS011;8112;53.592;10.184;2024-03-07T09:38:16;16.43;;;12.03;;
16015;SDS011;8112;53.592;10.184;2024-03-07T09:43:19;18.10;;;11.20;;
16015;SDS011;8112;53.592;10.184;2024-03-07T09:48:23;17.00;;;11.67;;
16015;SDS011;8112;53.592;10.184;2024-03-07T09:53:28;17.00;;;11.40;;
16015;SDS011;8112;53.592;10.184;2024-03-07T09:58:31;17.07;;;11.80;;
16015;SDS011;8112;53.592;10.184;2024-03-07T10:03:35;19.00;;;12.17;;
16015;SDS011;8112;53.592;10.184;2024-03-07T10:08:39;20.73;;;14.00;;
16015;SDS011;8112;53.592;10.184;2024-03-07T10:13:45;18.10;;;11.90;;
16015;SDS011;8112;53.592;10.184;2024-03-07T10:18:49;20.67;;;13.20;;
16015;SDS011;8112;53.592;10.184;2024-03-07T10:23:51;21.70;;;13.20;;
16015;SDS011;8112;53.592;10.184;2024-03-07T10:29:07;19.77;;;12.60;;
16015;SDS011;8112;53.592;10.184;2024-03-07T10:34:09;18.47;;;11.87;;
16015;SDS011;8112;53.592;10.184;2024-03-07T10:39:12;15.90;;;11.27;;
16015;SDS011;8112;53.592;10.184;2024-03-07T10:44:18;16.67;;;11.87;;
16015;SDS011;8112;53.592;10.184;2024-03-07T10:49:22;21.90;;;12.93;;
16015;SDS011;8112;53.592;10.184;2024-03-07T10:54:30;19.00;;;12.90;;
16015;SDS011;8112;53.592;10.184;2024-03-07T10:59:44;18.57;;;12.13;;
16015;SDS011;8112;53.592;10.184;2024-03-07T11:04:50;16.63;;;11.90;;
16015;SDS011;8112;53.592;10.184;2024-03-07T11:09:53;21.57;;;13.03;;
16015;SDS011;8112;53.592;10.184;2024-03-07T11:14:58;19.67;;;12.23;;
16015;SDS011;8112;53.592;10.184;2024-03-07T11:25:20;16.37;;;11.13;;
16015;SDS011;8112;53.592;10.184;2024-03-07T11:30:24;18.67;;;12.63;;
16015;SDS011;8112;53.592;10.184;2024-03-07T11:35:31;20.27;;;13.80;;
16015;SDS011;8112;53.592;10.184;2024-03-07T11:40:44;18.47;;;12.60;;
16015;SDS011;8112;53.592;10.184;2024-03-07T11:45:48;21.23;;;12.67;;
16015;SDS011;8112;53.592;10.184;2024-03-07T11:50:53;18.23;;;12.47;;
16015;SDS011;8112;53.592;10.184;2024-03-07T11:55:55;16.73;;;11.27;;
16015;SDS011;8112;53.592;10.184;2024-03-07T12:00:58;20.27;;;11.83;;
16015;SDS011;8112;53.592;10.184;2024-03-07T12:06:00;16.57;;;11.93;;
16015;SDS011;8112;53.592;10.184;2024-03-07T12:11:01;19.67;;;12.33;;
16015;SDS011;8112;53.592;10.184;2024-03-07T12:16:05;17.67;;;13.00;;
16015;SDS011;8112;53.592;10.184;2024-03-07T12:21:08;18.57;;;12.80;;
16015;SDS011;8112;53.592;10.184;2024-03-07T12:26:09;17.30;;;12.87;;
16015;SDS011;8112;53.592;10.184;2024-03-07T12:31:18;16.00;;;12.60;;
16015;SDS011;8112;53.592;10.184;2024-03-07T12:36:24;19.37;;;12.57;;
16015;SDS011;8112;53.592;10.184;2024-03-07T12:41:34;18.03;;;12.93;;
16015;SDS011;8112;53.592;10.184;2024-03-07T12:46:37;16.80;;;12.23;;
16015;SDS011;8112;53.592;10.184;2024-03-07T12:51:42;18.00;;;12.47;;
16015;SDS011;8112;53.592;10.184;2024-03-07T12:56:46;23.40;;;14.13;;
16015;SDS011;8112;53.592;10.184;2024-03-07T13:01:51;21.17;;;13.90;;
16015;SDS011;8112;53.592;10.184;2024-03-07T13:06:54;20.50;;;13.23;;
16015;SDS011;8112;53.592;10.184;2024-03-07T13:11:59;19.53;;;13.80;;
16015;SDS011;8112;53.592;10.184;2024-03-07T13:17:05;19.47;;;13.47;;
16015;SDS011;8112;53.592;10.184;2024-03-07T13:22:07;21.97;;;14.60;;
16015;SDS011;8112;53.592;10.184;2024-03-07T13:27:12;21.07;;;14.33;;
16015;SDS011;8112;53.592;10.184;2024-03-07T13:32:22;18.10;;;13.53;;
16015;SDS011;8112;53.592;10.184;2024-03-07T13:37:24;17.93;;;12.70;;
16015;SDS011;8112;53.592;10.184;2024-03-07T13:42:26;18.80;;;13.57;;
16015;SDS011;8112;53.592;10.184;2024-03-07T13:47:29;20.23;;;13.60;;
16015;SDS011;8112;53.592;10.184;2024-03-07T13:52:31;18.33;;;12.10;;
16015;SDS011;8112;53.592;10.184;2024-03-07T13:57:40;20.17;;;13.30;;
16015;SDS011;8112;53.592;10.184;2024-03-07T14:02:57;20.37;;;12.90;;
16015;SDS011;8112;53.592;10.184;2024-03-07T14:08:21;17.00;;;12.20;;
16015;SDS011;8112;53.592;10.184;2024-03-07T14:13:45;16.33;;;12.10;;
16015;SDS011;8112;53.592;10.184;2024-03-07T14:19:12;16.20;;;11.53;;
16015;SDS011;8112;53.592;10.184;2024-03-07T14:30:20;15.70;;;10.70;;
16015;SDS011;8112;53.592;10.184;2024-03-07T14:35:32;13.63;;;9.60;;
16015;SDS011;8112;53.592;10.184;2024-03-07T14:40:40;15.13;;;10.60;;
16015;SDS011;8112;53.592;10.184;2024-03-07T14:45:44;16.77;;;10.37;;
16015;SDS011;8112;53.592;10.184;2024-03-07T14:50:48;13.50;;;10.23;;
16015;SDS011;8112;53.592;10.184;2024-03-07T14:55:49;16.40;;;10.93;;
16015;SDS011;8112;53.592;10.184;2024-03-07T15:00:52;13.90;;;10.53;;
16015;SDS011;8112;53.592;10.184;2024-03-07T15:05:55;16.10;;;11.23;;
16015;SDS011;8112;53.592;10.184;2024-03-07T15:11:00;15.40;;;11.53;;
16015;SDS011;8112;53.592;10.184;2024-03-07T15:16:09;13.47;;;10.53;;
16015;SDS011;8112;53.592;10.184;2024-03-07T15:21:12;18.23;;;11.07;;
16015;SDS011;8112;53.592;10.184;2024-03-07T15:26:15;14.23;;;10.03;;
16015;SDS011;8112;53.592;10.184;2024-03-07T15:31:18;16.90;;;9.83;;
16015;SDS011;8112;53.592;10.184;2024-03-07T15:36:21;33.30;;;12.87;;
16015;SDS011;8112;53.592;10.184;2024-03-07T15:41:25;19.40;;;11.30;;
16015;SDS011;8112;53.592;10.184;2024-03-07T15:46:27;19.33;;;10.83;;
16015;SDS011;8112;53.592;10.184;2024-03-07T15:51:30;17.57;;;12.63;;
16015;SDS011;8112;53.592;10.184;2024-03-07T15:56:32;18.27;;;11.07;;
16015;SDS011;8112;53.592;10.184;2024-03-07T16:01:34;15.00;;;11.00;;
16015;SDS011;8112;53.592;10.184;2024-03-07T16:06:37;20.80;;;12.77;;
16015;SDS011;8112;53.592;10.184;2024-03-07T16:11:38;20.33;;;13.20;;
16015;SDS011;8112;53.592;10.184;2024-03-07T16:16:40;21.43;;;13.90;;
16015;SDS011;8112;53.592;10.184;2024-03-07T16:21:45;22.87;;;13.90;;
16015;SDS011;8112;53.592;10.184;2024-03-07T16:26:46;24.90;;;14.20;;
16015;SDS011;8112;53.592;10.184;2024-03-07T16:31:48;25.77;;;15.07;;
16015;SDS011;8112;53.592;10.184;2024-03-07T16:36:51;26.67;;;15.67;;
16015;SDS011;8112;53.592;10.184;2024-03-07T16:41:56;25.10;;;15.73;;
16015;SDS011;8112;53.592;10.184;2024-03-07T16:47:00;26.07;;;15.50;;
16015;SDS011;8112;53.592;10.184;2024-03-07T16:52:03;27.20;;;14.70;;
16015;SDS011;8112;53.592;10.184;2024-03-07T16:57:06;30.13;;;17.43;;
16015;SDS011;8112;53.592;10.184;2024-03-07T17:02:08;23.70;;;16.03;;
16015;SDS011;8112;53.592;10.184;2024-03-07T17:07:12;23.37;;;16.17;;
16015;SDS011;8112;53.592;10.184;2024-03-07T17:12:14;25.37;;;15.00;;
16015;SDS011;8112;53.592;10.184;2024-03-07T17:17:16;22.27;;;15.67;;
16015;SDS011;8112;53.592;10.184;2024-03-07T17:22:19;26.00;;;15.07;;
16015;SDS011;8112;53.592;10.184;2024-03-07T17:27:22;41.73;;;29.47;;
16015;SDS011;8112;53.592;10.184;2024-03-07T17:32:23;23.30;;;15.73;;
16015;SDS011;8112;53.592;10.184;2024-03-07T17:37:26;22.17;;;15.27;;
16015;SDS011;8112;53.592;10.184;2024-03-07T17:42:29;23.53;;;15.07;;
16015;SDS011;8112;53.592;10.184;2024-03-07T17:47:31;20.67;;;13.27;;
16015;SDS011;8112;53.592;10.184;2024-03-07T17:52:34;20.77;;;13.53;;
16015;SDS011;8112;53.592;10.184;2024-03-07T17:57:35;18.43;;;13.23;;
16015;SDS011;8112;53.592;10.184;2024-03-07T18:02:37;22.40;;;13.77;;
16015;SDS011;8112;53.592;10.184;2024-03-07T18:07:41;19.10;;;13.20;;
16015;SDS011;8112;53.592;10.184;2024-03-07T18:12:43;18.13;;;13.23;;
16015;SDS011;8112;53.592;10.184;2024-03-07T18:17:49;16.37;;;11.87;;
16015;SDS011;8112;53.592;10.184;2024-03-07T18:22:57;16.83;;;13.07;;
16015;SDS011;8112;53.592;10.184;2024-03-07T18:28:00;16.67;;;12.77;;
16015;SDS011;8112;53.592;10.184;2024-03-07T18:33:04;18.63;;;12.63;;
16015;SDS011;8112;53.592;10.184;2024-03-07T18:38:09;17.83;;;12.60;;
16015;SDS011;8112;53.592;10.184;2024-03-07T18:43:13;19.80;;;12.50;;
16015;SDS011;8112;53.592;10.184;2024-03-07T18:48:15;30.87;;;20.83;;
16015;SDS011;8112;53.592;10.184;2024-03-07T18:53:18;27.93;;;17.87;;
16015;SDS011;8112;53.592;10.184;2024-03-07T18:58:20;20.87;;;14.27;;
16015;SDS011;8112;53.592;10.184;2024-03-07T19:03:23;19.17;;;13.37;;
16015;SDS011;8112;53.592;10.184;2024-03-07T19:08:29;18.13;;;12.33;;
16015;SDS011;8112;53.592;10.184;2024-03-07T19:13:33;17.90;;;12.93;;
16015;SDS011;8112;53.592;10.184;2024-03-07T19:18:35;19.07;;;12.00;;
16015;SDS011;8112;53.592;10.184;2024-03-07T19:23:38;21.57;;;13.40;;
16015;SDS011;8112;53.592;10.184;2024-03-07T19:28:44;21.57;;;13.50;;
16015;SDS011;8112;53.592;10.184;2024-03-07T19:33:47;25.27;;;13.73;;
16015;SDS011;8112;53.592;10.184;2024-03-07T19:38:52;19.77;;;12.53;;
16015;SDS011;8112;53.592;10.184;2024-03-07T19:43:54;15.07;;;11.37;;
16015;SDS011;8112;53.592;10.184;2024-03-07T19:48:57;18.40;;;11.10;;
16015;SDS011;8112;53.592;10.184;2024-03-07T19:54:01;18.60;;;12.57;;
16015;SDS011;8112;53.592;10.184;2024-03-07T19:59:05;17.33;;;12.20;;
16015;SDS011;8112;53.592;10.184;2024-03-07T20:04:07;17.50;;;11.60;;
16015;SDS011;8112;53.592;10.184;2024-03-07T20:09:11;19.27;;;13.53;;
16015;SDS011;8112;53.592;10.184;2024-03-07T20:14:17;29.23;;;18.23;;
16015;SDS011;8112;53.592;10.184;2024-03-07T20:19:18;19.73;;;12.90;;
16015;SDS011;8112;53.592;10.184;2024-03-07T20:24:21;16.77;;;11.33;;
16015;SDS011;8112;53.592;10.184;2024-03-07T20:29:23;19.63;;;12.43;;
16015;SDS011;8112;53.592;10.184;2024-03-07T20:34:25;20.67;;;12.60;;
16015;SDS011;8112;53.592;10.184;2024-03-07T20:39:28;16.87;;;11.17;;
16015;SDS011;8112;53.592;10.184;2024-03-07T20:44:30;18.23;;;11.87;;
16015;SDS011;8112;53.592;10.184;2024-03-07T20:49:31;16.73;;;11.83;;
16015;SDS011;8112;53.592;10.184;2024-03-07T20:54:37;19.43;;;11.93;;
16015;SDS011;8112;53.592;10.184;2024-03-07T20:59:39;17.57;;;12.10;;
16015;SDS011;8112;53.592;10.184;2024-03-07T21:04:41;18.53;;;12.20;;
16015;SDS011;8112;53.592;10.184;2024-03-07T21:09:44;18.07;;;11.90;;
16015;SDS011;8112;53.592;10.184;2024-03-07T21:14:46;16.20;;;12.53;;
16015;SDS011;8112;53.592;10.184;2024-03-07T21:19:49;17.67;;;11.97;;
16015;SDS011;8112;53.592;10.184;2024-03-07T21:24:52;14.10;;;10.73;;
16015;SDS011;8112;53.592;10.184;2024-03-07T21:29:53;18.40;;;12.27;;
16015;SDS011;8112;53.592;10.184;2024-03-07T21:34:55;16.37;;;11.70;;
16015;SDS011;8112;53.592;10.184;2024-03-07T21:39:58;18.57;;;12.63;;
16015;SDS011;8112;53.592;10.184;2024-03-07T21:45:00;17.30;;;11.83;;
16015;SDS011;8112;53.592;10.184;2024-03-07T21:50:02;15.97;;;11.80;;
16015;SDS011;8112;53.592;10.184;2024-03-07T21:55:06;20.30;;;12.90;;
16015;SDS011;8112;53.592;10.184;2024-03-07T22:00:12;18.10;;;11.90;;
16015;SDS011;8112;53.592;10.184;2024-03-07T22:05:18;18.80;;;11.27;;
16015;SDS011;8112;53.592;10.184;2024-03-07T22:10:21;20.70;;;12.00;;
16015;SDS011;8112;53.592;10.184;2024-03-07T22:15:23;19.70;;;11.83;;
16015;SDS011;8112;53.592;10.184;2024-03-07T22:20:25;16.93;;;11.07;;
16015;SDS011;8112;53.592;10.184;2024-03-07T22:25:28;17.90;;;11.83;;
16015;SDS011;8112;53.592;10.184;2024-03-07T22:30:30;15.33;;;10.70;;
16015;SDS011;8112;53.592;10.184;2024-03-07T22:35:32;18.63;;;11.63;;
16015;SDS011;8112;53.592;10.184;2024-03-07T22:40:35;18.13;;;11.47;;
16015;SDS011;8112;53.592;10.184;2024-03-07T22:45:37;19.47;;;12.43;;
16015;SDS011;8112;53.592;10.184;2024-03-07T22:50:39;16.13;;;11.73;;
16015;SDS011;8112;53.592;10.184;2024-03-07T22:55:42;16.60;;;10.93;;
16015;SDS011;8112;53.592;10.184;2024-03-07T23:00:44;17.67;;;12.20;;
16015;SDS011;8112;53.592;10.184;2024-03-07T23:05:46;17.00;;;10.80;;
16015;SDS011;8112;53.592;10.184;2024-03-07T23:10:49;18.33;;;11.83;;
16015;SDS011;8112;53.592;10.184;2024-03-07T23:15:51;16.00;;;10.30;;
16015;SDS011;8112;53.592;10.184;2024-03-07T23:20:53;17.50;;;11.17;;
16015;SDS011;8112;53.592;10.184;2024-03-07T23:25:57;16.10;;;10.70;;
16015;SDS011;8112;53.592;10.184;2024-03-07T23:30:59;16.90;;;11.47;;
16015;SDS011;8112;53.592;10.184;2024-03-07T23:36:01;17.10;;;11.67;;
16015;SDS011;8112;53.592;10.184;2024-03-07T23:41:04;18.13;;;12.00;;
16015;SDS011;8112;53.592;10.184;2024-03-07T23:46:06;17.00;;;12.37;;
16015;SDS011;8112;53.592;10.184;2024-03-07T23:51:08;17.27;;;11.63;;
16015;SDS011;8112;53.592;10.184;2024-03-07T23:56:11;16.43;;;11.43;;
